createdAt,value
2019-03-27T00:01:30.486Z,51.55
2019-03-27T00:04:02.046Z,52.13
2019-03-27T00:06:33.584Z,53.95
2019-03-27T00:09:05.774Z,61.35
2019-03-27T00:11:37.019Z,57.48
2019-03-27T00:14:08.265Z,71.55
2019-03-27T00:16:40.859Z,55.17
2019-03-27T00:19:12.403Z,59.95
2019-03-27T00:21:43.747Z,56.80
2019-03-27T00:24:15.203Z,56.68
2019-03-27T00:26:46.554Z,51.42
2019-03-27T00:29:18.003Z,53.80
2019-03-27T00:31:49.368Z,48.05
2019-03-27T00:34:20.913Z,49.63
2019-03-27T00:36:52.374Z,53.33
2019-03-27T00:39:23.746Z,51.33
2019-03-27T00:41:55.270Z,61.68
2019-03-27T00:44:27.820Z,75.20
2019-03-27T00:46:59.974Z,75.60
2019-03-27T00:49:31.473Z,99.97
2019-03-27T00:52:02.931Z,91.85
2019-03-27T00:54:34.175Z,75.52
2019-03-27T00:57:05.635Z,110.92
2019-03-27T00:59:37.081Z,90.30
2019-03-27T01:02:08.332Z,59.20
2019-03-27T01:04:39.784Z,72.00
2019-03-27T01:07:11.125Z,60.38
2019-03-27T01:09:42.405Z,77.90
2019-03-27T01:12:13.837Z,78.60
2019-03-27T01:14:44.994Z,70.50
2019-03-27T01:17:16.439Z,73.00
2019-03-27T01:19:47.686Z,66.02
2019-03-27T01:22:19.038Z,72.35
2019-03-27T01:24:50.375Z,70.52
2019-03-27T01:27:21.729Z,61.23
2019-03-27T01:29:53.194Z,66.97
2019-03-27T01:32:24.446Z,66.77
2019-03-27T01:34:55.696Z,76.55
2019-03-27T01:37:27.147Z,72.82
2019-03-27T01:39:58.492Z,96.28
2019-03-27T01:42:30.109Z,104.10
2019-03-27T01:45:01.713Z,116.45
2019-03-27T01:47:33.164Z,138.97
2019-03-27T01:50:06.570Z,118.72
2019-03-27T01:52:38.728Z,111.75
2019-03-27T01:55:10.180Z,151.60
2019-03-27T01:57:41.527Z,123.00
2019-03-27T02:00:13.352Z,96.90
2019-03-27T02:02:45.866Z,105.75
2019-03-27T02:05:17.119Z,116.08
2019-03-27T02:07:48.443Z,117.20
2019-03-27T02:10:20.122Z,84.45
2019-03-27T02:12:51.478Z,77.55
2019-03-27T02:15:22.621Z,84.40
2019-03-27T02:17:53.768Z,92.62
2019-03-27T02:20:25.225Z,86.10
2019-03-27T02:22:56.468Z,156.70
2019-03-27T02:25:27.823Z,223.47
2019-03-27T02:27:59.190Z,293.17
2019-03-27T02:30:30.511Z,282.25
2019-03-27T02:33:01.925Z,204.90
2019-03-27T02:35:33.217Z,151.65
2019-03-27T02:38:04.614Z,169.02
2019-03-27T02:40:35.945Z,170.17
2019-03-27T02:43:07.278Z,151.30
2019-03-27T02:45:38.632Z,153.80
2019-03-27T02:48:13.818Z,154.00
2019-03-27T02:50:43.302Z,160.93
2019-03-27T02:53:14.626Z,194.52
2019-03-27T02:55:47.205Z,189.25
2019-03-27T02:58:18.670Z,173.65
2019-03-27T03:00:49.913Z,143.50
2019-03-27T03:03:21.267Z,132.25
2019-03-27T03:05:52.723Z,126.95
2019-03-27T03:08:24.168Z,137.50
2019-03-27T03:10:55.317Z,131.18
2019-03-27T03:13:26.558Z,133.32
2019-03-27T03:15:57.946Z,104.12
2019-03-27T03:18:29.372Z,98.65
2019-03-27T03:21:00.638Z,99.52
2019-03-27T03:23:31.981Z,107.67
2019-03-27T03:26:03.518Z,109.00
2019-03-27T03:28:34.765Z,104.63
2019-03-27T03:31:06.052Z,103.62
2019-03-27T03:33:37.388Z,95.62
2019-03-27T03:36:08.816Z,99.35
2019-03-27T03:38:40.163Z,125.00
2019-03-27T03:41:11.627Z,125.70
2019-03-27T03:43:43.064Z,123.25
2019-03-27T03:46:14.629Z,121.70
2019-03-27T03:48:46.783Z,132.70
2019-03-27T03:51:18.354Z,140.40
2019-03-27T03:53:49.807Z,129.93
2019-03-27T03:56:21.264Z,161.40
2019-03-27T03:58:52.821Z,142.85
2019-03-27T04:01:24.376Z,149.65
2019-03-27T04:03:56.953Z,135.97
2019-03-27T04:06:28.306Z,136.10
2019-03-27T04:08:59.744Z,138.68
2019-03-27T04:11:31.104Z,133.90
2019-03-27T04:14:02.357Z,117.97
2019-03-27T04:16:33.699Z,109.83
2019-03-27T04:19:05.278Z,118.25
2019-03-27T04:21:36.822Z,113.95
2019-03-27T04:24:08.081Z,101.82
2019-03-27T04:26:39.420Z,102.10
2019-03-27T04:29:10.871Z,108.67
2019-03-27T04:31:42.122Z,107.52
2019-03-27T04:34:13.387Z,99.87
2019-03-27T04:36:44.817Z,91.67
2019-03-27T04:39:16.172Z,100.72
2019-03-27T04:41:47.521Z,93.05
2019-03-27T04:44:19.090Z,89.20
2019-03-27T04:46:50.832Z,80.45
2019-03-27T04:49:22.286Z,83.55
2019-03-27T04:51:53.740Z,71.02
2019-03-27T04:54:27.018Z,71.75
2019-03-27T04:56:58.080Z,63.08
2019-03-27T04:59:29.333Z,63.75
2019-03-27T05:02:00.680Z,65.05
2019-03-27T05:04:32.439Z,61.53
2019-03-27T05:07:03.583Z,56.83
2019-03-27T05:09:34.941Z,56.95
2019-03-27T05:12:06.392Z,61.08
2019-03-27T05:14:37.839Z,64.85
2019-03-27T05:17:09.010Z,53.92
2019-03-27T05:19:40.448Z,54.98
2019-03-27T05:22:11.686Z,61.83
2019-03-27T05:24:42.971Z,59.90
2019-03-27T05:27:14.286Z,66.00
2019-03-27T05:29:45.631Z,67.30
2019-03-27T05:32:17.298Z,63.25
2019-03-27T05:34:48.648Z,61.35
2019-03-27T05:37:20.001Z,58.10
2019-03-27T05:39:51.452Z,60.30
2019-03-27T05:42:22.604Z,73.15
2019-03-27T05:44:55.594Z,67.45
2019-03-27T05:47:26.834Z,75.32
2019-03-27T05:49:58.083Z,78.47
2019-03-27T05:52:29.526Z,80.25
2019-03-27T05:55:00.983Z,102.50
2019-03-27T05:57:32.546Z,73.67
2019-03-27T06:00:05.033Z,71.90
2019-03-27T06:02:36.203Z,58.63
2019-03-27T06:05:07.509Z,57.98
2019-03-27T06:07:38.864Z,52.30
2019-03-27T06:10:10.211Z,46.00
2019-03-27T06:12:41.523Z,56.70
2019-03-27T06:15:13.086Z,53.78
2019-03-27T06:17:44.613Z,44.40
2019-03-27T06:20:16.017Z,50.55
2019-03-27T06:22:48.409Z,49.67
2019-03-27T06:25:19.965Z,51.35
2019-03-27T06:27:51.122Z,53.98
2019-03-27T06:30:22.472Z,51.58
2019-03-27T06:32:53.912Z,49.77
2019-03-27T06:35:25.366Z,58.28
2019-03-27T06:37:56.729Z,59.88
2019-03-27T06:40:28.272Z,70.65
2019-03-27T06:42:59.549Z,55.52
2019-03-27T06:45:31.689Z,61.73
2019-03-27T06:48:03.041Z,47.30
2019-03-27T06:50:34.496Z,54.27
2019-03-27T06:53:06.052Z,97.40
2019-03-27T06:55:37.294Z,59.18
2019-03-27T06:58:08.858Z,55.58
2019-03-27T07:00:40.295Z,52.20
2019-03-27T07:03:11.764Z,44.08
2019-03-27T07:05:43.116Z,45.30
2019-03-27T07:08:14.461Z,44.27
2019-03-27T07:10:45.721Z,33.67
2019-03-27T07:13:17.068Z,29.35
2019-03-27T07:15:48.420Z,29.75
2019-03-27T07:18:19.861Z,23.67
2019-03-27T07:20:51.212Z,12.40
2019-03-27T07:23:22.467Z,18.92
2019-03-27T07:25:54.738Z,12.55
2019-03-27T07:28:26.088Z,10.50
2019-03-27T07:30:57.438Z,9.33
2019-03-27T07:33:28.693Z,13.93
2019-03-27T07:35:59.845Z,11.85
2019-03-27T07:38:30.977Z,6.50
2019-03-27T07:41:02.023Z,7.15
2019-03-27T07:43:33.363Z,11.53
2019-03-27T07:46:04.825Z,5.00
2019-03-27T07:48:36.089Z,6.20
2019-03-27T07:51:07.322Z,6.60
2019-03-27T07:53:38.569Z,8.50
2019-03-27T07:56:09.723Z,9.90
2019-03-27T07:58:41.178Z,7.47
2019-03-27T08:01:12.627Z,5.75
2019-03-27T08:03:43.699Z,10.68
2019-03-27T08:06:15.135Z,6.62
2019-03-27T08:08:46.372Z,10.80
2019-03-27T08:11:17.548Z,10.93
2019-03-27T08:13:48.968Z,9.13
2019-03-27T08:16:20.040Z,6.53
2019-03-27T08:18:51.250Z,10.08
2019-03-27T08:21:22.598Z,8.18
2019-03-27T08:23:53.856Z,9.00
2019-03-27T08:26:25.210Z,8.68
2019-03-27T08:28:56.464Z,10.48
2019-03-27T08:31:27.915Z,9.15
2019-03-27T08:33:59.363Z,6.17
2019-03-27T08:36:30.717Z,11.43
2019-03-27T08:39:02.280Z,12.43
2019-03-27T08:41:35.880Z,16.85
2019-03-27T08:44:07.019Z,20.43
2019-03-27T08:46:38.472Z,11.80
2019-03-27T08:49:21.258Z,11.68
2019-03-27T08:51:43.014Z,7.95
2019-03-27T08:54:14.267Z,9.28
2019-03-27T08:56:45.344Z,7.87
2019-03-27T08:59:16.556Z,9.65
2019-03-27T09:01:47.703Z,9.78
2019-03-27T09:06:50.201Z,7.12
2019-03-27T09:09:21.860Z,8.85
2019-03-27T09:11:53.413Z,12.82
2019-03-27T09:14:24.669Z,13.08
2019-03-27T09:16:56.417Z,14.38
2019-03-27T09:19:35.731Z,14.43
2019-03-27T09:22:01.275Z,14.10
2019-03-27T09:24:32.549Z,8.28
2019-03-27T09:27:04.082Z,6.58
2019-03-27T09:29:35.432Z,7.95
2019-03-27T09:32:06.735Z,10.25
2019-03-27T09:34:38.644Z,6.80
2019-03-27T09:37:10.084Z,6.00
2019-03-27T09:39:41.725Z,7.75
2019-03-27T09:42:13.298Z,10.93
2019-03-27T09:44:44.851Z,10.18
2019-03-27T09:47:16.832Z,10.88
2019-03-27T09:49:49.795Z,17.52
2019-03-27T09:52:21.591Z,10.05
2019-03-27T09:54:53.337Z,10.58
2019-03-27T09:57:25.100Z,11.25
2019-03-27T09:59:57.063Z,11.30
2019-03-27T10:02:28.512Z,8.65
2019-03-27T10:05:00.231Z,9.28
2019-03-27T10:07:31.831Z,7.65
2019-03-27T10:10:03.490Z,9.85
2019-03-27T10:12:34.943Z,8.48
2019-03-27T10:15:09.783Z,6.85
2019-03-27T10:17:41.123Z,7.87
2019-03-27T10:20:13.804Z,8.15
2019-03-27T10:22:45.261Z,11.73
2019-03-27T10:25:17.931Z,12.70
2019-03-27T10:27:49.600Z,10.43
2019-03-27T10:30:21.683Z,9.83
2019-03-27T10:32:53.316Z,9.03
2019-03-27T10:35:25.082Z,7.85
2019-03-27T10:37:56.943Z,7.50
2019-03-27T10:40:28.513Z,8.70
2019-03-27T10:43:00.185Z,12.43
2019-03-27T10:45:32.029Z,10.70
2019-03-27T10:48:03.686Z,10.65
2019-03-27T10:50:35.541Z,11.35
2019-03-27T10:53:07.304Z,16.35
2019-03-27T10:55:38.859Z,13.05
2019-03-27T10:58:10.622Z,11.73
2019-03-27T11:00:42.488Z,16.57
2019-03-27T11:03:14.142Z,18.85
2019-03-27T11:05:45.693Z,19.02
2019-03-27T11:08:17.365Z,11.93
2019-03-27T11:10:49.010Z,20.65
2019-03-27T11:13:20.783Z,10.28
2019-03-27T11:15:52.436Z,14.83
2019-03-27T11:18:24.191Z,13.32
2019-03-27T11:20:55.665Z,13.15
2019-03-27T11:23:28.525Z,13.03
2019-03-27T11:26:00.101Z,14.43
2019-03-27T11:28:31.842Z,16.00
2019-03-27T11:31:03.707Z,15.28
2019-03-27T11:33:35.038Z,15.50
2019-03-27T11:36:06.604Z,14.70
2019-03-27T11:38:38.265Z,9.93
2019-03-27T11:41:12.245Z,26.50
2019-03-27T11:43:54.089Z,13.78
2019-03-27T11:46:16.560Z,22.20
2019-03-27T11:48:48.389Z,27.52
2019-03-27T11:51:20.141Z,17.07
2019-03-27T11:53:51.608Z,13.08
2019-03-27T11:56:23.286Z,16.55
2019-03-27T11:58:54.919Z,18.37
2019-03-27T12:01:39.350Z,18.42
2019-03-27T12:03:59.977Z,19.42
2019-03-27T12:06:31.729Z,18.50
2019-03-27T12:09:04.793Z,22.17
2019-03-27T12:11:36.167Z,24.95
2019-03-27T12:14:07.814Z,25.20
2019-03-27T12:16:39.495Z,20.05
2019-03-27T12:19:11.130Z,22.90
2019-03-27T12:21:43.010Z,18.80
2019-03-27T12:24:14.553Z,16.32
2019-03-27T12:26:46.226Z,19.57
2019-03-27T12:29:18.265Z,33.50
2019-03-27T12:31:50.157Z,25.00
2019-03-27T12:34:22.012Z,35.05
2019-03-27T12:36:53.578Z,42.00
2019-03-27T12:39:25.111Z,36.33
2019-03-27T12:41:56.871Z,49.03
2019-03-27T12:44:28.429Z,48.85
2019-03-27T12:47:00.197Z,44.38
2019-03-27T12:49:31.754Z,46.10
2019-03-27T12:52:05.529Z,36.17
2019-03-27T12:54:36.396Z,34.25
2019-03-27T12:57:08.059Z,29.35
2019-03-27T12:59:40.017Z,24.60
2019-03-27T13:02:11.576Z,27.40
2019-03-27T13:04:43.224Z,31.30
2019-03-27T13:07:15.402Z,39.10
2019-03-27T13:09:46.966Z,41.58
2019-03-27T13:12:18.721Z,33.08
2019-03-27T13:14:50.599Z,28.35
2019-03-27T13:17:22.337Z,24.77
2019-03-27T13:19:54.222Z,32.05
2019-03-27T13:22:25.880Z,29.67
2019-03-27T13:24:57.623Z,27.17
2019-03-27T13:27:29.077Z,30.02
2019-03-27T13:30:00.730Z,28.30
2019-03-27T13:32:32.274Z,33.63
2019-03-27T13:35:05.997Z,29.67
2019-03-27T13:37:37.559Z,24.90
2019-03-27T13:40:09.208Z,23.12
2019-03-27T13:42:40.863Z,26.55
2019-03-27T13:45:12.518Z,24.20
2019-03-27T13:47:44.279Z,25.48
2019-03-27T13:50:16.866Z,27.27
2019-03-27T13:52:48.233Z,22.67
2019-03-27T13:55:19.968Z,28.55
2019-03-27T13:57:51.938Z,30.72
2019-03-27T14:00:23.797Z,37.48
2019-03-27T14:02:55.259Z,30.17
2019-03-27T14:05:26.907Z,28.50
2019-03-27T14:07:58.494Z,29.57
2019-03-27T14:10:30.536Z,35.15
2019-03-27T14:13:02.398Z,48.15
2019-03-27T14:15:33.863Z,52.85
2019-03-27T14:18:05.717Z,51.53
2019-03-27T14:20:37.263Z,34.85
2019-03-27T14:23:08.927Z,34.18
2019-03-27T14:25:40.675Z,32.05
2019-03-27T14:28:12.446Z,33.13
2019-03-27T14:30:49.012Z,49.23
2019-03-27T14:33:20.750Z,46.35
2019-03-27T14:35:52.085Z,36.50
2019-03-27T14:38:23.781Z,37.58
2019-03-27T14:40:55.643Z,37.03
2019-03-27T14:43:27.402Z,37.10
2019-03-27T14:45:59.375Z,35.35
2019-03-27T14:48:30.826Z,30.48
2019-03-27T14:51:03.508Z,39.98
2019-03-27T14:53:35.368Z,32.60
2019-03-27T14:56:06.818Z,29.27
2019-03-27T14:58:38.298Z,31.27
2019-03-27T15:01:10.137Z,35.43
2019-03-27T15:03:41.720Z,36.25
2019-03-27T15:06:13.349Z,57.70
2019-03-27T15:08:44.819Z,122.67
2019-03-27T15:11:16.363Z,115.37
2019-03-27T15:13:48.328Z,88.05
2019-03-27T15:16:19.987Z,69.62
2019-03-27T15:18:52.677Z,59.98
2019-03-27T15:21:24.270Z,54.60
2019-03-27T15:23:55.905Z,50.50
2019-03-27T15:26:27.634Z,46.63
2019-03-27T15:28:59.607Z,46.88
2019-03-27T15:31:31.060Z,45.10
2019-03-27T15:34:02.708Z,32.88
2019-03-27T15:36:34.283Z,30.20
2019-03-27T15:39:07.542Z,31.82
2019-03-27T15:41:38.871Z,29.60
2019-03-27T15:44:10.474Z,30.02
2019-03-27T15:46:42.028Z,26.17
2019-03-27T15:49:13.575Z,29.90
2019-03-27T15:51:45.339Z,28.80
2019-03-27T15:54:17.006Z,33.23
2019-03-27T15:56:48.963Z,32.83
2019-03-27T15:59:20.621Z,27.52
2019-03-27T16:01:52.489Z,31.55
2019-03-27T16:04:24.079Z,29.40
2019-03-27T16:06:57.023Z,27.17
2019-03-27T16:09:28.688Z,25.85
2019-03-27T16:12:00.342Z,24.15
2019-03-27T16:14:32.003Z,21.37
2019-03-27T16:17:13.199Z,25.70
2019-03-27T16:19:37.156Z,22.25
2019-03-27T16:22:08.921Z,24.43
2019-03-27T16:24:40.585Z,24.47
2019-03-27T16:27:12.538Z,23.95
2019-03-27T16:29:44.011Z,26.95
2019-03-27T16:32:15.653Z,26.82
2019-03-27T16:34:47.306Z,27.58
2019-03-27T16:37:19.076Z,28.62
2019-03-27T16:39:50.520Z,30.72
2019-03-27T16:42:22.208Z,30.48
2019-03-27T16:44:53.739Z,32.23
2019-03-27T16:47:25.298Z,31.37
2019-03-27T16:49:57.057Z,32.28
2019-03-27T16:52:28.619Z,32.98
2019-03-27T16:55:00.358Z,49.80
2019-03-27T16:57:31.926Z,63.35
2019-03-27T17:00:04.614Z,43.92
2019-03-27T17:02:36.365Z,57.90
2019-03-27T17:05:07.916Z,50.30
2019-03-27T17:07:39.584Z,39.88
2019-03-27T17:10:11.848Z,26.77
2019-03-27T17:12:43.301Z,25.70
2019-03-27T17:15:15.063Z,28.15
2019-03-27T17:17:46.829Z,30.23
2019-03-27T17:20:18.690Z,23.15
2019-03-27T17:22:50.543Z,26.05
2019-03-27T17:25:22.012Z,32.15
2019-03-27T17:27:55.751Z,31.30
2019-03-27T17:30:26.692Z,37.00
2019-03-27T17:32:58.235Z,40.08
2019-03-27T17:35:29.761Z,36.58
2019-03-27T17:38:01.518Z,32.10
2019-03-27T17:40:32.910Z,28.80
2019-03-27T17:43:04.646Z,23.27
2019-03-27T17:45:36.379Z,21.87
2019-03-27T17:48:08.263Z,24.47
2019-03-27T17:50:39.811Z,23.65
2019-03-27T17:53:11.570Z,17.62
2019-03-27T17:55:43.427Z,19.00
2019-03-27T17:58:15.048Z,16.42
2019-03-27T18:00:49.240Z,17.07
2019-03-27T18:03:32.625Z,17.42
2019-03-27T18:06:03.989Z,19.07
2019-03-27T18:08:35.139Z,20.68
2019-03-27T18:11:08.100Z,21.25
2019-03-27T18:13:39.666Z,15.00
2019-03-27T18:16:11.236Z,15.88
2019-03-27T18:18:42.775Z,16.77
2019-03-27T18:21:14.571Z,18.35
2019-03-27T18:23:46.850Z,23.02
2019-03-27T18:26:18.670Z,40.85
2019-03-27T18:28:50.333Z,38.53
2019-03-27T18:31:21.783Z,27.50
2019-03-27T18:33:53.237Z,29.52
2019-03-27T18:36:26.028Z,30.75
2019-03-27T18:38:57.681Z,34.23
2019-03-27T18:41:29.448Z,31.10
2019-03-27T18:44:03.228Z,32.38
2019-03-27T18:46:34.392Z,33.00
2019-03-27T18:49:06.050Z,38.63
2019-03-27T18:51:37.813Z,36.68
2019-03-27T18:54:09.569Z,39.55
2019-03-27T18:56:41.059Z,42.83
2019-03-27T18:59:12.991Z,39.98
2019-03-27T19:01:44.756Z,44.63
2019-03-27T19:04:16.306Z,46.20
2019-03-27T19:06:47.851Z,41.30
2019-03-27T19:09:19.846Z,47.43
2019-03-27T19:11:51.483Z,50.58
2019-03-27T19:14:22.940Z,55.45
2019-03-27T19:16:54.590Z,59.85
2019-03-27T19:19:26.343Z,58.80
2019-03-27T19:21:58.115Z,63.75
2019-03-27T19:24:29.693Z,68.45
2019-03-27T19:27:01.430Z,66.35
2019-03-27T19:29:34.009Z,64.90
2019-03-27T19:32:05.403Z,60.43
2019-03-27T19:34:37.228Z,68.87
2019-03-27T19:37:08.987Z,63.85
2019-03-27T19:39:41.873Z,66.70
2019-03-27T19:42:14.349Z,63.63
2019-03-27T19:44:45.719Z,59.58
2019-03-27T19:47:17.455Z,61.37
2019-03-27T19:49:49.315Z,58.73
2019-03-27T19:52:20.872Z,62.58
2019-03-27T19:54:52.642Z,61.28
2019-03-27T19:57:24.285Z,64.27
2019-03-27T19:59:56.042Z,60.45
2019-03-27T20:02:27.603Z,60.70
2019-03-27T20:04:59.264Z,62.55
2019-03-27T20:07:36.229Z,62.00
2019-03-27T20:10:59.782Z,56.77
2019-03-27T20:13:46.696Z,60.90
2019-03-27T20:16:18.345Z,57.88
2019-03-27T20:18:50.111Z,55.20
2019-03-27T20:21:21.503Z,57.13
2019-03-27T20:23:53.117Z,57.27
2019-03-27T20:27:10.227Z,60.43
2019-03-27T20:29:41.975Z,53.73
2019-03-27T20:32:13.525Z,59.77
2019-03-27T20:34:45.285Z,54.48
2019-03-27T20:37:16.848Z,57.23
2019-03-27T20:39:48.605Z,59.85
2019-03-27T20:42:20.261Z,51.55
2019-03-27T20:45:07.266Z,53.75
2019-03-27T20:47:38.723Z,47.75
2019-03-27T20:50:10.175Z,51.20
2019-03-27T20:52:41.534Z,53.60
2019-03-27T20:55:12.976Z,46.25
2019-03-27T20:57:44.330Z,49.40
2019-03-27T21:00:16.298Z,46.18
2019-03-27T21:02:47.647Z,43.78
2019-03-27T21:05:18.893Z,44.08
2019-03-27T21:07:50.247Z,43.08
2019-03-27T21:10:21.494Z,44.00
2019-03-27T21:12:52.947Z,40.52
2019-03-27T21:15:24.402Z,40.88
2019-03-27T21:17:55.755Z,36.58
2019-03-27T21:20:27.416Z,36.58
2019-03-27T21:22:58.689Z,34.92
2019-03-27T21:25:30.113Z,40.55
2019-03-27T21:28:01.258Z,41.10
2019-03-27T21:30:32.707Z,44.00
2019-03-27T21:33:03.960Z,44.58
2019-03-27T21:35:35.514Z,47.17
2019-03-27T21:38:06.962Z,47.08
2019-03-27T21:40:38.164Z,46.58
2019-03-27T21:43:09.450Z,43.05
2019-03-27T21:45:40.816Z,45.03
2019-03-27T21:48:12.478Z,45.17
2019-03-27T21:50:44.026Z,57.27
2019-03-27T21:53:15.480Z,47.03
2019-03-27T21:55:46.728Z,47.65
2019-03-27T21:58:18.166Z,43.45
2019-03-27T22:00:49.643Z,47.33
2019-03-27T22:03:20.988Z,45.52
2019-03-27T22:05:52.443Z,45.92
2019-03-27T22:08:25.021Z,47.40
2019-03-27T22:10:56.292Z,49.10
2019-03-27T22:13:27.824Z,51.77
2019-03-27T22:16:00.202Z,55.25
2019-03-27T22:18:31.549Z,54.42
2019-03-27T22:21:03.078Z,52.05
2019-03-27T22:23:34.451Z,54.65
2019-03-27T22:26:05.701Z,53.87
2019-03-27T22:28:37.356Z,58.20
2019-03-27T22:31:08.916Z,60.52
2019-03-27T22:33:40.263Z,59.45
2019-03-27T22:36:11.621Z,60.17
2019-03-27T22:38:43.274Z,60.03
2019-03-27T22:41:14.418Z,55.28
2019-03-27T22:43:45.878Z,55.03
2019-03-27T22:46:17.015Z,56.60
2019-03-27T22:48:48.369Z,50.78
2019-03-27T22:51:19.614Z,53.20
2019-03-27T22:53:51.083Z,42.65
2019-03-27T22:56:22.523Z,52.20
2019-03-27T22:58:53.772Z,48.08
2019-03-27T23:01:25.227Z,48.70
2019-03-27T23:03:56.680Z,44.27
2019-03-27T23:06:27.931Z,38.10
2019-03-27T23:08:59.181Z,40.08
2019-03-27T23:11:30.633Z,41.28
2019-03-27T23:14:01.981Z,39.08
2019-03-27T23:16:33.349Z,36.35
2019-03-27T23:19:04.578Z,41.13
2019-03-27T23:21:35.924Z,35.73
2019-03-27T23:24:07.281Z,39.15
2019-03-27T23:26:38.826Z,35.17
2019-03-27T23:29:10.289Z,28.02
2019-03-27T23:31:41.642Z,30.40
2019-03-27T23:34:13.004Z,32.85
2019-03-27T23:36:44.445Z,31.15
2019-03-27T23:39:15.683Z,32.45
2019-03-27T23:41:47.151Z,34.58
2019-03-27T23:44:18.600Z,33.13
2019-03-27T23:46:49.854Z,35.15
2019-03-27T23:49:21.223Z,27.87
2019-03-27T23:51:52.753Z,33.30
2019-03-27T23:54:24.015Z,34.55
2019-03-27T23:56:55.342Z,32.33
2019-03-27T23:59:26.612Z,27.95
